Time;durP1;ratioP1;P1;durP2;ratioP2;P2;SDS_P1;SDS_P2;PMS_P1;PMS_P2;Temp;Humidity;BMP_temperature;BMP_pressure;BME280_temperature;BME280_humidity;BME280_pressure;Samples;Min_cycle;Max_cycle;Signal;HPM_P1;HPM_P2
2023/07/23 00:00:41;;;;;;;12.45;5.70;;;;;;;25.04;80.15;94641.09;5090330;28;20190;-43
2023/07/23 00:03:09;;;;;;;16.98;5.72;;;;;;;25.00;80.50;94647.81;5090529;28;20197;-43
2023/07/23 00:05:36;;;;;;;10.88;5.30;;;;;;;24.98;80.41;94652.47;5072340;28;20193;-43
2023/07/23 00:08:03;;;;;;;14.90;6.10;;;;;;;24.97;80.40;94650.88;5090700;28;20189;-42
2023/07/23 00:10:30;;;;;;;11.30;5.72;;;;;;;24.87;80.80;94646.22;5090863;28;20258;-42
2023/07/23 00:12:58;;;;;;;11.07;5.55;;;;;;;24.91;80.53;94663.03;5090119;28;20278;-43
2023/07/23 00:15:25;;;;;;;12.30;5.70;;;;;;;24.92;80.35;94661.25;5090301;28;20185;-43
2023/07/23 00:17:51;;;;;;;15.55;6.35;;;;;;;24.87;81.00;94659.31;5090115;28;20679;-43
2023/07/23 00:20:18;;;;;;;10.93;5.40;;;;;;;24.82;80.63;94653.94;5090055;28;20194;-43
2023/07/23 00:22:45;;;;;;;11.65;5.30;;;;;;;24.83;80.78;94670.44;5089659;28;20570;-43
2023/07/23 00:25:13;;;;;;;14.20;5.90;;;;;;;24.84;81.20;94674.66;5090989;28;20200;-45
2023/07/23 00:27:40;;;;;;;13.85;5.85;;;;;;;24.81;81.26;94672.50;5071941;28;20570;-43
2023/07/23 00:30:10;;;;;;;12.63;4.90;;;;;;;24.78;81.42;94669.31;5089801;28;20643;-43
2023/07/23 00:32:36;;;;;;;11.20;5.00;;;;;;;24.77;81.67;94677.38;5089948;28;20189;-43
2023/07/23 00:35:04;;;;;;;14.43;6.22;;;;;;;24.76;81.43;94675.78;5089832;28;20640;-42
2023/07/23 00:37:32;;;;;;;15.93;6.07;;;;;;;24.73;81.76;94677.03;5090126;28;20205;-44
2023/07/23 00:39:59;;;;;;;13.85;6.15;;;;;;;24.69;81.85;94686.34;5072359;28;20194;-44
2023/07/23 00:42:25;;;;;;;14.15;5.22;;;;;;;24.72;81.89;94688.50;5090057;28;20193;-43
2023/07/23 00:44:52;;;;;;;11.02;6.07;;;;;;;24.66;82.35;94686.03;5089728;28;20580;-45
2023/07/23 00:47:21;;;;;;;14.95;5.85;;;;;;;24.61;82.78;94694.53;5089937;28;20189;-43
2023/07/23 00:49:48;;;;;;;12.93;6.07;;;;;;;24.60;82.80;94697.38;5089296;28;20206;-43
2023/07/23 00:52:16;;;;;;;11.80;5.43;;;;;;;24.60;82.85;94698.16;5090063;28;20189;-43
2023/07/23 00:54:42;;;;;;;11.77;5.72;;;;;;;24.63;82.66;94695.09;5089487;28;20189;-43
2023/07/23 00:57:11;;;;;;;11.63;5.35;;;;;;;24.64;82.76;94695.88;5089672;28;20190;-43
2023/07/23 00:59:39;;;;;;;10.85;5.90;;;;;;;24.63;82.76;94694.31;5089529;28;20288;-43
2023/07/23 01:02:06;;;;;;;13.85;5.78;;;;;;;24.62;82.81;94700.56;5089467;28;20193;-43
2023/07/23 01:04:35;;;;;;;10.70;5.55;;;;;;;24.46;82.91;94678.47;5089840;28;20205;-43
2023/07/23 01:07:06;;;;;;;10.27;5.75;;;;;;;24.63;83.20;94707.38;5089855;28;20272;-43
2023/07/23 01:09:33;;;;;;;9.50;5.47;;;;;;;24.60;83.37;94707.81;5088999;28;20228;-43
2023/07/23 01:12:00;;;;;;;13.85;6.32;;;;;;;24.55;83.65;94705.09;5089473;28;20190;-44
2023/07/23 01:14:27;;;;;;;9.35;4.72;;;;;;;24.56;83.46;94709.28;5089442;28;20278;-43
2023/07/23 01:16:54;;;;;;;11.77;5.53;;;;;;;24.51;83.79;94709.97;5089484;28;20750;-44
2023/07/23 01:19:21;;;;;;;10.07;5.72;;;;;;;24.49;84.12;94712.81;5089245;28;20196;-43
2023/07/23 01:21:54;;;;;;;11.82;5.40;;;;;;;24.46;84.16;94713.25;5089519;28;20611;-43
2023/07/23 01:24:22;;;;;;;12.32;5.43;;;;;;;24.44;84.33;94722.34;5089040;28;20250;-43
2023/07/23 01:26:48;;;;;;;11.43;5.30;;;;;;;24.42;84.40;94724.38;5089861;28;20193;-43
2023/07/23 01:29:15;;;;;;;14.93;5.43;;;;;;;24.41;84.40;94731.44;5089571;28;20225;-43
2023/07/23 01:31:42;;;;;;;45.83;30.92;;;;;;;24.36;84.97;94727.88;5089420;28;20580;-43
2023/07/23 01:34:09;;;;;;;23.20;15.85;;;;;;;24.39;84.59;94748.34;5091150;28;20239;-43
2023/07/23 01:36:36;;;;;;;11.73;6.85;;;;;;;24.44;85.19;94756.34;5093459;28;20577;-43
2023/07/23 01:39:04;;;;;;;12.60;6.28;;;;;;;24.31;85.06;94746.00;5093799;28;20623;-43
2023/07/23 01:41:31;;;;;;;13.25;5.43;;;;;;;24.41;84.76;94759.38;5093124;28;20200;-43
2023/07/23 01:44:00;;;;;;;11.30;5.90;;;;;;;24.48;84.54;94765.31;5093386;28;20656;-43
2023/07/23 01:46:26;;;;;;;17.65;5.90;;;;;;;24.47;84.58;94769.75;5093177;28;20247;-43
2023/07/23 01:48:53;;;;;;;10.23;5.50;;;;;;;24.44;80.94;94767.59;5093167;28;20225;-43
2023/07/23 01:51:20;;;;;;;21.40;11.77;;;;;;;24.47;79.42;94788.03;5093631;28;20186;-44
2023/07/23 01:53:47;;;;;;;27.38;12.23;;;;;;;24.45;78.44;94784.88;5093255;28;20270;-43
2023/07/23 01:56:16;;;;;;;14.90;5.85;;;;;;;24.46;76.42;94788.28;5092964;28;20189;-43
2023/07/23 01:58:45;;;;;;;20.05;7.00;;;;;;;24.44;75.98;94798.97;5075366;28;20188;-44
2023/07/23 02:01:12;;;;;;;13.45;4.95;;;;;;;24.41;75.82;94811.69;5092773;28;20194;-44
2023/07/23 02:03:39;;;;;;;9.20;4.82;;;;;;;24.36;76.78;94808.91;5092983;28;20629;-44
2023/07/23 02:06:05;;;;;;;11.38;5.20;;;;;;;24.31;76.86;94821.81;5092889;28;20190;-43
2023/07/23 02:08:32;;;;;;;16.90;5.80;;;;;;;24.28;75.98;94828.28;5092751;28;20216;-43
2023/07/23 02:11:00;;;;;;;16.70;5.40;;;;;;;24.22;75.10;94813.47;5092904;28;20190;-44
2023/07/23 02:13:28;;;;;;;12.65;4.47;;;;;;;24.17;75.12;94819.34;5093366;28;20224;-43
2023/07/23 02:15:55;;;;;;;15.45;5.43;;;;;;;24.08;74.82;94810.22;5093448;28;20206;-43
2023/07/23 02:18:23;;;;;;;17.63;5.80;;;;;;;24.18;75.53;94831.44;5092277;28;20208;-43
2023/07/23 02:20:51;;;;;;;15.25;5.65;;;;;;;24.12;76.07;94818.41;5092641;28;20198;-43
2023/07/23 02:23:18;;;;;;;15.65;6.13;;;;;;;24.16;76.67;94824.81;5092531;28;20186;-43
2023/07/23 02:25:45;;;;;;;18.92;5.82;;;;;;;24.10;77.69;94820.47;5092672;28;20197;-43
2023/07/23 02:28:12;;;;;;;15.52;5.68;;;;;;;24.10;77.93;94826.50;5092470;28;20197;-44
2023/07/23 02:30:40;;;;;;;18.48;6.00;;;;;;;24.10;78.52;94823.88;5092272;28;20700;-44
2023/07/23 02:33:06;;;;;;;14.68;5.68;;;;;;;24.10;80.63;94812.63;5092142;28;20189;-43
2023/07/23 02:35:37;;;;;;;16.67;5.45;;;;;;;24.17;80.78;94829.81;5092534;28;20194;-43
2023/07/23 02:38:05;;;;;;;16.13;5.70;;;;;;;24.11;81.03;94829.91;5092364;28;20193;-45
2023/07/23 02:40:33;;;;;;;12.10;6.28;;;;;;;24.06;82.09;94825.31;5092105;28;20194;-43
2023/07/23 02:43:00;;;;;;;12.00;6.97;;;;;;;24.08;82.22;94835.53;5092248;28;20249;-43
2023/07/23 02:45:27;;;;;;;10.10;6.40;;;;;;;24.13;82.63;94833.06;5092166;28;20190;-43
2023/07/23 02:47:57;;;;;;;10.88;6.53;;;;;;;24.12;82.56;94839.31;5092136;28;20239;-43
2023/07/23 02:50:25;;;;;;;18.98;7.18;;;;;;;24.08;82.89;94827.72;5091988;28;20221;-44
2023/07/23 02:52:52;;;;;;;15.35;8.05;;;;;;;24.13;83.36;94835.69;5092045;28;20198;-45
2023/07/23 02:55:19;;;;;;;17.80;8.57;;;;;;;24.16;83.70;94841.28;5092097;28;20194;-43
2023/07/23 02:57:46;;;;;;;13.15;7.35;;;;;;;24.17;84.86;94845.47;5091630;28;20197;-43
2023/07/23 03:00:13;;;;;;;14.68;8.00;;;;;;;24.14;84.89;94842.53;5091834;28;20243;-43
2023/07/23 03:02:40;;;;;;;12.80;8.15;;;;;;;24.19;84.60;94846.09;5091757;28;20200;-43
2023/07/23 03:05:09;;;;;;;11.73;7.95;;;;;;;24.22;84.69;94844.81;5091604;28;20239;-44
2023/07/23 03:07:36;;;;;;;14.57;8.13;;;;;;;24.15;84.75;94833.66;5091715;28;20192;-43
2023/07/23 03:10:03;;;;;;;14.82;8.60;;;;;;;24.16;85.55;94841.28;5091417;28;20253;-44
2023/07/23 03:12:30;;;;;;;15.32;8.68;;;;;;;24.18;85.53;94839.25;5091736;28;20225;-44
2023/07/23 03:14:57;;;;;;;12.65;7.80;;;;;;;23.98;85.34;94804.72;5056774;28;20850;-44
2023/07/23 03:17:24;;;;;;;14.52;9.27;;;;;;;24.22;85.16;94839.59;5091895;28;20194;-44
2023/07/23 03:19:52;;;;;;;16.58;8.60;;;;;;;24.22;85.46;94832.59;5091504;28;20247;-43
2023/07/23 03:22:21;;;;;;;19.15;9.52;;;;;;;24.25;85.60;94839.16;5091672;28;20188;-44
2023/07/23 03:24:47;;;;;;;14.95;8.80;;;;;;;24.25;85.62;94836.56;5091453;28;20185;-43
2023/07/23 03:27:14;;;;;;;16.48;9.52;;;;;;;24.23;nan;94836.78;5091052;28;20580;-44
2023/07/23 03:29:41;;;;;;;13.05;8.15;;;;;;;24.28;85.02;94836.94;5091281;28;20233;-44
2023/07/23 03:32:08;;;;;;;14.45;9.18;;;;;;;24.33;84.48;94828.44;5091136;28;20613;-42
2023/07/23 03:34:35;;;;;;;12.80;8.85;;;;;;;24.33;84.12;94838.88;5091739;28;20182;-42
2023/07/23 03:37:01;;;;;;;13.10;8.68;;;;;;;24.38;83.98;94852.13;5091212;28;20182;-43
2023/07/23 03:39:30;;;;;;;12.65;8.55;;;;;;;24.40;83.85;94839.63;5090978;28;20301;-43
2023/07/23 03:41:57;;;;;;;18.02;9.00;;;;;;;24.46;83.10;94843.19;5090956;28;20197;-44
2023/07/23 03:44:24;;;;;;;13.63;8.45;;;;;;;24.49;82.19;94840.94;5091290;28;20198;-43
2023/07/23 03:47:04;;;;;;;13.95;8.73;;;;;;;24.54;81.95;94853.34;5072768;28;20284;-43
2023/07/23 03:49:34;;;;;;;14.57;9.48;;;;;;;24.61;80.94;94850.63;5091083;28;20252;-43
2023/07/23 03:52:01;;;;;;;13.85;8.32;;;;;;;24.63;80.85;94852.00;5090746;28;20644;-43
2023/07/23 03:54:28;;;;;;;14.70;9.55;;;;;;;24.66;80.59;94856.03;5090994;28;20198;-45
2023/07/23 03:56:56;;;;;;;12.75;8.70;;;;;;;24.72;80.21;94858.53;5090202;28;20181;-44
2023/07/23 03:59:23;;;;;;;12.40;9.48;;;;;;;24.74;79.75;94858.31;5091150;28;20196;-45
2023/07/23 04:01:49;;;;;;;12.45;9.27;;;;;;;24.81;79.20;94853.78;5090684;28;20196;-43
2023/07/23 04:04:16;;;;;;;15.32;8.77;;;;;;;24.87;79.01;94863.38;5090822;28;20193;-43
2023/07/23 04:06:43;;;;;;;14.48;8.82;;;;;;;24.93;78.71;94856.47;5090607;28;20181;-43
2023/07/23 04:09:10;;;;;;;17.27;9.70;;;;;;;25.05;77.87;94849.44;5091886;28;20193;-44
2023/07/23 04:11:36;;;;;;;13.00;8.85;;;;;;;25.10;77.19;94859.28;5090279;28;20190;-44
2023/07/23 04:14:06;;;;;;;14.98;9.73;;;;;;;25.18;77.03;94851.09;5090477;28;20220;-44
2023/07/23 04:16:32;;;;;;;12.63;9.98;;;;;;;25.26;76.43;94854.19;5090786;28;20192;-44
2023/07/23 04:18:59;;;;;;;14.75;10.18;;;;;;;25.31;76.16;94856.13;5090053;28;20273;-43
2023/07/23 04:21:26;;;;;;;12.88;9.88;;;;;;;25.39;76.21;94863.66;5090636;28;20367;-44
2023/07/23 04:23:55;;;;;;;11.70;10.00;;;;;;;25.47;76.35;94860.69;5089883;28;20190;-43
2023/07/23 04:26:22;;;;;;;14.07;9.60;;;;;;;25.55;75.88;94851.69;5090421;28;20198;-43
2023/07/23 04:28:50;;;;;;;15.20;10.70;;;;;;;25.55;75.87;94849.09;5089861;28;20790;-42
2023/07/23 04:31:18;;;;;;;16.55;11.02;;;;;;;25.64;75.14;94857.41;5090244;28;20222;-44
2023/07/23 04:33:45;;;;;;;12.07;9.98;;;;;;;25.72;74.99;94854.44;5089809;28;20588;-45
2023/07/23 04:36:13;;;;;;;11.38;10.27;;;;;;;25.82;74.57;94859.13;5090403;28;20197;-42
2023/07/23 04:38:40;;;;;;;14.00;11.27;;;;;;;25.89;74.12;94855.38;5089426;28;20220;-44
2023/07/23 04:41:10;;;;;;;12.57;10.70;;;;;;;25.95;74.03;94861.53;5090194;28;20197;-44
2023/07/23 04:43:38;;;;;;;13.77;11.98;;;;;;;25.97;73.76;94860.28;5089655;28;20201;-45
2023/07/23 04:46:05;;;;;;;14.25;10.18;;;;;;;26.08;73.54;94868.34;5090141;28;20197;-44
2023/07/23 04:48:33;;;;;;;11.43;9.88;;;;;;;26.15;72.93;94869.81;5089513;28;20744;-50
2023/07/23 04:51:03;;;;;;;12.55;10.75;;;;;;;26.23;71.98;94855.56;5089598;28;20220;-43
2023/07/23 04:53:30;;;;;;;14.38;10.48;;;;;;;26.31;71.22;94862.28;5090095;28;20189;-44
2023/07/23 04:56:00;;;;;;;14.32;9.93;;;;;;;26.36;70.21;94863.19;5089676;28;20197;-43
2023/07/23 04:58:28;;;;;;;11.25;9.73;;;;;;;26.43;70.16;94868.31;5089861;28;20197;-43
2023/07/23 05:00:58;;;;;;;12.23;9.60;;;;;;;26.47;69.83;94869.47;5089474;28;20669;-44
2023/07/23 05:03:25;;;;;;;11.35;9.27;;;;;;;26.53;69.76;94865.91;5089818;28;20182;-44
2023/07/23 05:05:54;;;;;;;17.27;10.15;;;;;;;26.61;69.56;94867.38;5089295;28;20185;-43
2023/07/23 05:08:22;;;;;;;12.02;9.27;;;;;;;26.70;67.90;94864.16;5089900;28;20291;-44
2023/07/23 05:10:49;;;;;;;14.10;9.05;;;;;;;26.63;67.62;94847.72;5089408;28;20225;-44
2023/07/23 05:13:16;;;;;;;14.60;8.13;;;;;;;26.86;66.65;94867.06;5089695;28;20190;-43
2023/07/23 05:15:43;;;;;;;15.32;9.70;;;;;;;27.08;65.64;94870.59;5088800;28;20259;-43
2023/07/23 05:18:09;;;;;;;10.23;7.55;;;;;;;27.30;63.85;94869.94;5089567;28;20550;-44
2023/07/23 05:20:36;;;;;;;9.05;8.20;;;;;;;27.68;63.56;94867.41;5089106;28;20619;-43
2023/07/23 05:23:05;;;;;;;10.30;7.13;;;;;;;28.05;61.04;94855.59;5089366;28;20669;-44
2023/07/23 05:25:31;;;;;;;8.18;7.18;;;;;;;28.51;58.17;94870.16;5088926;28;20197;-44
2023/07/23 05:27:58;;;;;;;9.95;7.47;;;;;;;28.90;57.03;94872.69;5089946;28;20242;-44
2023/07/23 05:30:25;;;;;;;9.32;6.68;;;;;;;29.29;55.96;94880.47;5088930;28;20225;-43
2023/07/23 05:32:52;;;;;;;9.98;7.05;;;;;;;29.56;55.65;94883.88;5089356;28;20197;-44
2023/07/23 05:35:19;;;;;;;8.63;6.30;;;;;;;29.83;53.78;94880.38;5089270;28;20276;-43
2023/07/23 05:37:45;;;;;;;10.02;5.82;;;;;;;30.05;52.06;94875.75;5089263;28;20652;-44
2023/07/23 05:40:14;;;;;;;5.70;5.07;;;;;;;30.32;50.63;94875.69;5089360;28;20255;-44
2023/07/23 05:42:40;;;;;;;9.10;6.78;;;;;;;30.69;51.90;94872.91;5089204;28;20216;-44
2023/07/23 05:45:08;;;;;;;9.32;7.85;;;;;;;30.94;53.48;94884.66;5089587;28;20238;-43
2023/07/23 05:47:36;;;;;;;14.40;7.43;;;;;;;31.10;54.01;94880.19;5088939;28;20190;-42
2023/07/23 05:50:02;;;;;;;9.15;6.65;;;;;;;31.30;51.84;94884.72;5089077;28;20732;-43
2023/07/23 05:52:29;;;;;;;10.45;7.15;;;;;;;31.44;51.35;94881.31;5088957;28;20194;-44
2023/07/23 05:54:56;;;;;;;10.57;7.35;;;;;;;31.46;53.04;94884.47;5088865;28;20246;-45
2023/07/23 05:57:24;;;;;;;10.60;7.55;;;;;;;31.55;53.24;94881.31;5088925;28;20186;-44
2023/07/23 05:59:51;;;;;;;17.38;8.02;;;;;;;31.66;54.32;94890.84;5089094;28;20549;-45
2023/07/23 06:02:18;;;;;;;11.68;7.30;;;;;;;31.51;54.60;94896.13;5089584;28;20603;-44
2023/07/23 06:04:45;;;;;;;11.95;7.95;;;;;;;31.37;55.26;94886.06;5090232;28;20242;-44
2023/07/23 06:07:11;;;;;;;10.68;7.25;;;;;;;31.29;56.00;94891.09;5088882;28;20677;-43
2023/07/23 06:09:38;;;;;;;13.50;8.43;;;;;;;31.12;55.73;94888.66;5089058;28;20683;-44
2023/07/23 06:12:06;;;;;;;10.73;7.78;;;;;;;31.11;56.41;94885.22;5089009;28;20681;-44
2023/07/23 06:14:34;;;;;;;11.55;7.13;;;;;;;31.27;55.85;94886.03;5088729;28;20564;-45
2023/07/23 06:17:01;;;;;;;10.65;7.53;;;;;;;31.47;55.01;94887.91;5089003;28;20190;-46
2023/07/23 06:19:28;;;;;;;11.57;7.50;;;;;;;31.36;55.54;94881.84;5089418;28;20193;-45
2023/07/23 06:21:57;;;;;;;13.85;6.95;;;;;;;31.29;55.31;94881.31;5092888;28;20193;-43
2023/07/23 06:24:24;;;;;;;11.50;7.60;;;;;;;31.40;53.93;94882.91;5092002;28;20198;-45
2023/07/23 06:26:51;;;;;;;10.88;7.43;;;;;;;31.41;52.52;94881.06;5092888;28;20291;-44
2023/07/23 06:29:17;;;;;;;10.50;6.25;;;;;;;31.54;51.47;94885.03;5092433;28;20662;-45
2023/07/23 06:31:46;;;;;;;7.13;6.15;;;;;;;31.72;48.69;94885.28;5074499;28;20616;-43
2023/07/23 06:34:13;;;;;;;7.88;6.15;;;;;;;31.94;48.59;94877.06;5092145;28;20196;-44
2023/07/23 06:36:40;;;;;;;11.43;6.50;;;;;;;32.22;48.99;94886.28;5092724;28;20185;-43
2023/07/23 06:39:06;;;;;;;5.65;5.15;;;;;;;32.53;47.88;94880.94;5092424;28;20190;-43
2023/07/23 06:41:33;;;;;;;8.50;5.75;;;;;;;32.72;46.39;94881.88;5074201;28;20272;-45
2023/07/23 06:44:00;;;;;;;10.57;5.80;;;;;;;32.87;45.27;94880.25;5091960;28;20293;-43
2023/07/23 06:46:27;;;;;;;8.13;5.55;;;;;;;32.94;44.88;94886.03;5092407;28;20281;-43
2023/07/23 06:48:55;;;;;;;8.20;5.40;;;;;;;32.79;45.59;94878.94;5091871;28;20189;-44
2023/07/23 06:51:22;;;;;;;5.85;5.07;;;;;;;32.95;44.86;94879.72;5091951;28;20613;-44
2023/07/23 06:53:49;;;;;;;5.85;5.18;;;;;;;33.06;44.67;94880.44;5091838;28;20203;-45
2023/07/23 06:56:17;;;;;;;6.68;5.40;;;;;;;33.13;44.38;94875.63;5091532;28;20209;-45
2023/07/23 06:58:44;;;;;;;9.88;5.30;;;;;;;33.30;44.27;94870.72;5110849;28;20230;-45
2023/07/23 07:01:11;;;;;;;8.27;5.32;;;;;;;33.61;42.37;94878.47;5111776;28;20197;-45
2023/07/23 07:03:38;;;;;;;6.95;4.85;;;;;;;33.69;42.16;94886.63;5112134;28;20261;-46
2023/07/23 07:06:06;;;;;;;6.72;5.35;;;;;;;33.74;42.40;94885.00;5112030;28;20193;-45
2023/07/23 07:08:33;;;;;;;5.95;5.25;;;;;;;33.84;42.56;94890.22;5110397;28;20185;-43
2023/07/23 07:11:02;;;;;;;6.97;4.88;;;;;;;34.04;42.21;94895.38;5099403;28;20705;-44
2023/07/23 07:13:28;;;;;;;6.55;5.38;;;;;;;34.09;40.98;94897.97;5091630;28;20200;-46
2023/07/23 07:15:55;;;;;;;5.97;4.85;;;;;;;33.95;39.61;94900.47;5091403;28;20198;-45
2023/07/23 07:18:22;;;;;;;7.57;5.05;;;;;;;33.87;38.84;94893.09;5091479;28;20185;-43
2023/07/23 07:20:57;;;;;;;7.68;5.05;;;;;;;33.98;39.83;94896.47;5091668;28;20197;-44
2023/07/23 07:23:26;;;;;;;7.88;4.63;;;;;;;34.06;39.80;94897.72;5091442;28;20182;-43
2023/07/23 07:25:55;;;;;;;12.07;5.13;;;;;;;34.06;39.95;94893.22;5091427;28;20186;-44
2023/07/23 07:28:22;;;;;;;6.93;5.15;;;;;;;33.96;39.85;94895.97;5091505;28;20255;-44
2023/07/23 07:30:48;;;;;;;5.32;4.82;;;;;;;33.99;39.76;94895.41;5090354;28;20233;-43
2023/07/23 07:33:15;;;;;;;11.57;5.05;;;;;;;33.98;40.28;94893.81;5091254;28;20178;-46
2023/07/23 07:35:43;;;;;;;7.25;4.78;;;;;;;34.25;39.95;94901.28;5091609;28;20181;-45
2023/07/23 07:38:10;;;;;;;7.88;5.53;;;;;;;34.36;38.52;94901.94;5091265;28;20189;-45
2023/07/23 07:40:40;;;;;;;7.68;5.22;;;;;;;34.32;37.82;94869.03;5091087;28;20200;-45
2023/07/23 07:43:07;;;;;;;5.60;4.82;;;;;;;34.62;36.79;94892.63;5091005;28;20358;-44
2023/07/23 07:45:34;;;;;;;8.05;5.10;;;;;;;34.63;36.20;94888.09;5090883;28;20205;-44
2023/07/23 07:48:01;;;;;;;6.78;4.70;;;;;;;34.72;36.25;94897.03;5091152;28;20197;-44
2023/07/23 07:50:28;;;;;;;6.32;4.80;;;;;;;34.80;36.15;94901.69;5091325;28;20255;-44
2023/07/23 07:52:54;;;;;;;5.70;5.05;;;;;;;34.87;35.78;94899.50;5090774;28;20347;-46
2023/07/23 07:55:21;;;;;;;7.35;4.88;;;;;;;34.76;35.67;94900.72;5091627;28;20197;-44
2023/07/23 07:57:50;;;;;;;6.78;5.10;;;;;;;34.72;35.78;94888.25;5090626;28;20580;-46
2023/07/23 08:00:18;;;;;;;8.50;4.60;;;;;;;34.76;35.34;94879.47;5090938;28;20186;-45
2023/07/23 08:02:45;;;;;;;7.05;4.93;;;;;;;34.63;35.21;94888.09;5090795;28;20190;-45
2023/07/23 08:05:13;;;;;;;9.63;5.47;;;;;;;34.42;36.33;94885.66;5091032;28;20189;-43
2023/07/23 08:07:41;;;;;;;7.78;5.55;;;;;;;34.26;36.85;94878.94;5090640;28;20185;-45
2023/07/23 08:10:09;;;;;;;6.00;5.10;;;;;;;34.23;37.20;94879.50;5090719;28;20201;-44
2023/07/23 08:12:36;;;;;;;7.88;5.35;;;;;;;34.14;37.49;94879.31;5090636;28;20233;-45
2023/07/23 08:15:06;;;;;;;6.45;4.95;;;;;;;34.36;37.38;94888.66;5090117;28;20189;-44
2023/07/23 08:17:34;;;;;;;5.82;4.90;;;;;;;34.47;37.19;94892.00;5090887;28;20186;-44
2023/07/23 08:20:03;;;;;;;5.95;5.35;;;;;;;34.36;37.26;94891.31;5090425;28;20208;-45
2023/07/23 08:22:31;;;;;;;10.02;5.03;;;;;;;34.38;36.49;94881.22;5090366;28;20243;-43
2023/07/23 08:24:58;;;;;;;10.43;5.25;;;;;;;34.57;36.25;94887.38;5090523;28;20194;-44
2023/07/23 08:27:28;;;;;;;5.32;4.80;;;;;;;34.75;35.81;94887.69;5090312;28;20239;-44
2023/07/23 08:29:55;;;;;;;6.97;4.97;;;;;;;34.63;35.83;94888.09;5089963;28;20225;-47
2023/07/23 08:32:25;;;;;;;7.43;4.70;;;;;;;34.54;36.17;94893.25;5090405;28;20222;-44
2023/07/23 08:34:52;;;;;;;8.30;5.05;;;;;;;34.54;36.11;94892.47;5089989;28;20627;-51
2023/07/23 08:37:19;;;;;;;6.50;4.68;;;;;;;34.47;36.20;94884.84;5090360;28;20193;-45
2023/07/23 08:39:46;;;;;;;8.85;5.60;;;;;;;34.53;36.30;94883.72;5089854;28;20204;-44
2023/07/23 08:42:54;;;;;;;5.97;5.38;;;;;;;34.48;36.22;94870.50;5089719;28;20194;-45
2023/07/23 08:45:48;;;;;;;9.52;5.10;;;;;;;34.54;36.79;94881.84;4968599;28;20190;-43
2023/07/23 08:48:17;;;;;;;6.35;5.25;;;;;;;34.51;36.33;94875.25;4968636;28;20629;-45
2023/07/23 08:50:46;;;;;;;7.95;5.15;;;;;;;34.49;36.66;94876.59;4968514;28;20197;-44
2023/07/23 08:53:13;;;;;;;6.07;4.90;;;;;;;34.39;36.66;94870.28;4968595;28;20193;-44
2023/07/23 08:55:43;;;;;;;9.00;5.90;;;;;;;34.39;35.94;94872.16;4968533;28;20189;-46
2023/07/23 08:58:13;;;;;;;8.10;5.53;;;;;;;34.30;36.44;94879.97;4968920;28;20221;-45
2023/07/23 09:00:42;;;;;;;6.65;5.13;;;;;;;34.22;36.73;94883.22;4969141;28;20208;-44
2023/07/23 09:03:10;;;;;;;6.15;5.47;;;;;;;33.97;37.22;94856.94;4968695;28;20193;-44
2023/07/23 09:05:39;;;;;;;8.90;6.00;;;;;;;33.95;37.63;94881.88;4968905;28;20197;-44
2023/07/23 09:08:06;;;;;;;8.90;5.47;;;;;;;33.90;37.59;94878.50;4968265;28;20194;-45
2023/07/23 09:10:33;;;;;;;7.15;5.00;;;;;;;33.74;38.00;94879.69;4968493;28;20201;-45
2023/07/23 09:13:09;;;;;;;8.85;5.55;;;;;;;33.61;38.32;94881.91;4968094;28;20221;-45
2023/07/23 09:15:35;;;;;;;8.77;5.70;;;;;;;33.62;38.05;94886.16;4968535;28;20193;-44
2023/07/23 09:18:03;;;;;;;9.05;5.97;;;;;;;33.64;38.12;94886.69;4968190;28;20562;-44
2023/07/23 09:20:30;;;;;;;7.68;5.65;;;;;;;33.74;38.08;94877.84;4968538;28;20235;-44
2023/07/23 09:23:05;;;;;;;7.45;5.20;;;;;;;33.86;37.88;94878.25;5060405;28;20668;-44
2023/07/23 09:25:32;;;;;;;8.95;5.97;;;;;;;33.73;37.72;94862.19;5089685;28;20197;-44
2023/07/23 09:27:59;;;;;;;7.60;5.45;;;;;;;33.95;37.33;94886.41;5089640;28;20255;-44
2023/07/23 09:30:28;;;;;;;7.40;6.47;;;;;;;34.05;37.35;94891.63;5089276;28;20221;-45
2023/07/23 09:32:58;;;;;;;7.38;6.10;;;;;;;34.08;36.93;94892.94;5089240;28;20217;-45
2023/07/23 09:35:25;;;;;;;7.88;5.53;;;;;;;33.93;36.89;94880.56;5089435;28;20193;-45
2023/07/23 09:37:58;;;;;;;11.45;5.68;;;;;;;33.80;37.34;94887.31;5089401;28;20236;-43
2023/07/23 09:40:33;;;;;;;9.20;5.93;;;;;;;33.74;36.86;94880.47;5089156;28;20240;-43
2023/07/23 09:43:00;;;;;;;7.75;5.60;;;;;;;33.63;36.95;94882.41;5089858;28;21017;-45
2023/07/23 09:45:30;;;;;;;7.22;6.53;;;;;;;33.55;37.54;94876.91;5089777;28;20661;-45
2023/07/23 09:47:58;;;;;;;7.22;6.07;;;;;;;33.57;36.75;94886.19;5089381;28;20273;-44
2023/07/23 09:50:24;;;;;;;7.78;5.80;;;;;;;33.48;37.26;94884.41;5089150;28;20193;-44
2023/07/23 09:52:52;;;;;;;9.63;5.82;;;;;;;33.30;37.87;94862.78;5089189;28;20708;-44
2023/07/23 09:55:21;;;;;;;11.43;6.13;;;;;;;33.35;38.10;94876.00;5090934;28;20190;-45
2023/07/23 09:57:50;;;;;;;12.05;6.28;;;;;;;33.28;37.91;94878.16;5093479;28;20250;-44
2023/07/23 10:00:17;;;;;;;8.27;5.93;;;;;;;33.21;37.96;94859.13;5092941;28;20657;-43
2023/07/23 10:02:46;;;;;;;9.43;6.38;;;;;;;33.22;37.28;94869.44;5093235;28;20645;-44
2023/07/23 10:05:15;;;;;;;10.57;6.57;;;;;;;33.13;37.85;94863.16;5093051;28;20242;-44
2023/07/23 10:07:42;;;;;;;7.35;6.05;;;;;;;33.20;37.40;94866.28;5093496;28;20235;-45
2023/07/23 10:10:10;;;;;;;7.53;6.55;;;;;;;33.22;36.37;94869.44;5092888;28;20239;-44
2023/07/23 10:12:38;;;;;;;9.02;7.30;;;;;;;33.18;36.91;94871.06;5092758;28;20739;-45
2023/07/23 10:15:06;;;;;;;10.35;7.35;;;;;;;33.29;35.65;94868.34;5092723;28;20194;-45
2023/07/23 10:17:37;;;;;;;8.13;6.38;;;;;;;33.39;35.44;94871.72;5092982;28;20186;-45
2023/07/23 10:20:06;;;;;;;8.27;6.53;;;;;;;33.52;36.01;94865.03;5092654;28;20178;-44
2023/07/23 10:22:34;;;;;;;11.70;7.55;;;;;;;33.45;35.73;94853.94;5092682;28;20629;-45
2023/07/23 10:25:01;;;;;;;11.73;7.45;;;;;;;33.40;35.62;94857.38;5092413;28;20197;-44
2023/07/23 10:27:27;;;;;;;7.30;6.47;;;;;;;33.32;36.12;94859.84;5092666;28;20650;-44
2023/07/23 10:30:17;;;;;;;10.35;7.78;;;;;;;33.21;35.61;94859.91;5092364;28;20283;-44
2023/07/23 10:32:45;;;;;;;9.80;6.80;;;;;;;33.24;35.40;94855.13;5010303;28;20224;-45
2023/07/23 10:35:12;;;;;;;16.38;8.05;;;;;;;33.15;34.25;94855.72;5010143;28;20591;-45
2023/07/23 10:37:39;;;;;;;12.40;6.82;;;;;;;33.09;35.17;94854.16;5010007;28;20200;-44
2023/07/23 10:40:07;;;;;;;14.65;8.23;;;;;;;33.08;35.38;94851.81;5009918;28;20199;-45
2023/07/23 10:42:38;;;;;;;12.60;8.00;;;;;;;33.12;35.57;94858.94;5010210;28;20695;-44
2023/07/23 10:45:25;;;;;;;10.45;7.70;;;;;;;33.26;35.06;94853.00;5010046;28;20656;-43
2023/07/23 10:47:54;;;;;;;12.02;8.35;;;;;;;33.14;34.59;94842.75;5010084;28;20684;-45
2023/07/23 10:50:21;;;;;;;9.50;7.80;;;;;;;33.21;34.43;94856.47;5009967;28;20196;-44
2023/07/23 10:52:51;;;;;;;9.35;7.93;;;;;;;33.14;35.32;94856.00;5009785;28;20231;-43
2023/07/23 10:55:34;;;;;;;15.50;8.32;;;;;;;33.15;34.94;94860.22;5009806;28;20192;-43
2023/07/23 10:58:02;;;;;;;11.80;9.02;;;;;;;33.15;33.58;94855.72;5009922;28;20208;-43
2023/07/23 11:00:31;;;;;;;16.08;8.82;;;;;;;33.15;33.84;94860.22;5009637;28;20597;-45
2023/07/23 11:02:58;;;;;;;16.10;7.68;;;;;;;33.11;34.29;94845.94;5009662;28;20192;-45
2023/07/23 11:05:25;;;;;;;9.65;7.55;;;;;;;33.23;34.36;94854.34;5009315;28;20188;-44
2023/07/23 11:08:13;;;;;;;11.32;8.88;;;;;;;33.21;33.93;94854.63;5009427;28;20250;-44
2023/07/23 11:10:49;;;;;;;13.85;9.07;;;;;;;33.12;34.65;94848.31;5082757;28;20288;-43
2023/07/23 11:13:16;;;;;;;13.00;8.65;;;;;;;33.04;35.20;94851.56;5091961;28;20209;-44
2023/07/23 11:15:45;;;;;;;11.30;8.77;;;;;;;33.01;35.89;94851.31;5091693;28;20190;-45
2023/07/23 11:18:12;;;;;;;24.42;9.70;;;;;;;32.99;34.19;94841.00;5092110;28;20210;-45
2023/07/23 11:20:44;;;;;;;14.93;9.88;;;;;;;32.94;34.10;94843.66;5091650;28;20189;-44
2023/07/23 11:23:12;;;;;;;14.57;9.88;;;;;;;32.92;33.93;94851.88;5091616;28;20352;-43
2023/07/23 11:25:40;;;;;;;14.02;8.32;;;;;;;32.97;34.01;94851.84;5091694;28;20499;-46
2023/07/23 11:28:07;;;;;;;14.82;9.00;;;;;;;32.96;34.38;94850.28;5091470;28;20189;-44
2023/07/23 11:30:34;;;;;;;12.30;9.77;;;;;;;32.83;34.59;94834.97;5093064;28;20233;-43